sensor_id;sensor_type;location;lat;lon;timestamp;pressure;altitude;pressure_sealevel;temperature;humidity
69848;BME280;57143;55.940;37.496;2023-04-03T00:02:14;96956.06;;;8.75;100.00
69848;BME280;57143;55.940;37.496;2023-04-03T00:04:42;96937.13;;;8.65;100.00
69848;BME280;57143;55.940;37.496;2023-04-03T00:07:10;96938.50;;;8.67;100.00
69848;BME280;57143;55.940;37.496;2023-04-03T00:09:38;96943.88;;;8.72;100.00
69848;BME280;57143;55.940;37.496;2023-04-03T00:12:05;96944.16;;;8.76;100.00
69848;BME280;57143;55.940;37.496;2023-04-03T00:14:32;96928.78;;;8.76;100.00
69848;BME280;57143;55.940;37.496;2023-04-03T00:16:59;96918.50;;;8.73;100.00
69848;BME280;57143;55.940;37.496;2023-04-03T00:19:26;96920.94;;;8.75;100.00
69848;BME280;57143;55.940;37.496;2023-04-03T00:21:53;96920.94;;;8.75;100.00
69848;BME280;57143;55.940;37.496;2023-04-03T00:24:22;96902.03;;;8.70;100.00
69848;BME280;57143;55.940;37.496;2023-04-03T00:26:49;96912.28;;;8.78;100.00
69848;BME280;57143;55.940;37.496;2023-04-03T00:29:16;96899.88;;;8.72;100.00
69848;BME280;57143;55.940;37.496;2023-04-03T00:31:43;96899.34;;;8.75;100.00
69848;BME280;57143;55.940;37.496;2023-04-03T00:34:10;96898.22;;;8.81;100.00
69848;BME280;57143;55.940;37.496;2023-04-03T00:36:37;96903.09;;;8.79;100.00
69848;BME280;57143;55.940;37.496;2023-04-03T00:39:05;96888.25;;;8.76;100.00
69848;BME280;57143;55.940;37.496;2023-04-03T00:41:33;96879.91;;;8.73;100.00
69848;BME280;57143;55.940;37.496;2023-04-03T00:44:00;96884.47;;;8.72;100.00
69848;BME280;57143;55.940;37.496;2023-04-03T00:46:27;96884.75;;;8.76;100.00
69848;BME280;57143;55.940;37.496;2023-04-03T00:48:54;96873.97;;;8.66;100.00
69848;BME280;57143;55.940;37.496;2023-04-03T00:51:24;96882.06;;;8.71;100.00
69848;BME280;57143;55.940;37.496;2023-04-03T00:53:55;96886.13;;;8.63;100.00
69848;BME280;57143;55.940;37.496;2023-04-03T00:56:27;96878.56;;;8.65;100.00
69848;BME280;57143;55.940;37.496;2023-04-03T00:58:59;96885.03;;;8.74;100.00
69848;BME280;57143;55.940;37.496;2023-04-03T01:01:28;96894.44;;;8.77;100.00
69848;BME280;57143;55.940;37.496;2023-04-03T01:03:57;96894.22;;;8.78;100.00
69848;BME280;57143;55.940;37.496;2023-04-03T01:06:28;96891.75;;;8.72;100.00
69848;BME280;57143;55.940;37.496;2023-04-03T01:08:56;96903.91;;;8.79;100.00
69848;BME280;57143;55.940;37.496;2023-04-03T01:11:24;96907.94;;;8.77;100.00
69848;BME280;57143;55.940;37.496;2023-04-03T01:13:52;96919.03;;;8.80;100.00
69848;BME280;57143;55.940;37.496;2023-04-03T01:16:20;96933.06;;;8.82;100.00
69848;BME280;57143;55.940;37.496;2023-04-03T01:18:48;96929.31;;;8.78;100.00
69848;BME280;57143;55.940;37.496;2023-04-03T01:24:34;96947.41;;;8.73;100.00
69848;BME280;57143;55.940;37.496;2023-04-03T01:27:03;96968.72;;;8.84;100.00
69848;BME280;57143;55.940;37.496;2023-04-03T01:29:31;96977.34;;;8.86;100.00
69848;BME280;57143;55.940;37.496;2023-04-03T01:32:00;96978.41;;;8.85;100.00
69848;BME280;57143;55.940;37.496;2023-04-03T01:34:30;96928.00;;;8.61;100.00
69848;BME280;57143;55.940;37.496;2023-04-03T01:36:57;96986.53;;;8.95;100.00
69848;BME280;57143;55.940;37.496;2023-04-03T01:39:24;96988.69;;;8.98;100.00
69848;BME280;57143;55.940;37.496;2023-04-03T01:41:52;96995.16;;;8.97;100.00
69848;BME280;57143;55.940;37.496;2023-04-03T01:44:19;97002.72;;;8.85;100.00
69848;BME280;57143;55.940;37.496;2023-04-03T01:46:46;96998.13;;;8.96;100.00
69848;BME280;57143;55.940;37.496;2023-04-03T01:49:15;97001.66;;;8.86;100.00
69848;BME280;57143;55.940;37.496;2023-04-03T01:51:42;97029.47;;;8.92;100.00
69848;BME280;57143;55.940;37.496;2023-04-03T01:54:09;97035.13;;;8.85;100.00
69848;BME280;57143;55.940;37.496;2023-04-03T01:56:36;97040.81;;;8.89;100.00
69848;BME280;57143;55.940;37.496;2023-04-03T01:59:04;97048.13;;;8.78;100.00
69848;BME280;57143;55.940;37.496;2023-04-03T02:01:31;97042.97;;;8.77;100.00
69848;BME280;57143;55.940;37.496;2023-04-03T02:03:58;97068.66;;;8.84;100.00
69848;BME280;57143;55.940;37.496;2023-04-03T02:06:27;97081.06;;;8.80;100.00
69848;BME280;57143;55.940;37.496;2023-04-03T02:08:54;97080.28;;;8.75;100.00
69848;BME280;57143;55.940;37.496;2023-04-03T02:11:21;97098.34;;;8.79;100.00
69848;BME280;57143;55.940;37.496;2023-04-03T02:13:48;97096.47;;;8.80;100.00
69848;BME280;57143;55.940;37.496;2023-04-03T02:16:15;97112.13;;;8.83;100.00
69848;BME280;57143;55.940;37.496;2023-04-03T02:18:43;97123.22;;;8.81;100.00
69848;BME280;57143;55.940;37.496;2023-04-03T02:21:10;97126.19;;;8.80;100.00
69848;BME280;57143;55.940;37.496;2023-04-03T02:23:38;97147.78;;;8.75;100.00
69848;BME280;57143;55.940;37.496;2023-04-03T02:26:07;97153.97;;;8.75;100.00
69848;BME280;57143;55.940;37.496;2023-04-03T02:28:35;97160.97;;;8.66;100.00
69848;BME280;57143;55.940;37.496;2023-04-03T02:31:03;97168.53;;;8.64;100.00
69848;BME280;57143;55.940;37.496;2023-04-03T02:33:31;97201.50;;;8.71;100.00
69848;BME280;57143;55.940;37.496;2023-04-03T02:35:59;97212.56;;;8.70;100.00
69848;BME280;57143;55.940;37.496;2023-04-03T02:38:26;97226.34;;;8.73;100.00
69848;BME280;57143;55.940;37.496;2023-04-03T02:40:59;97235.78;;;8.71;100.00
69848;BME280;57143;55.940;37.496;2023-04-03T02:43:27;97252.56;;;8.73;100.00
69848;BME280;57143;55.940;37.496;2023-04-03T02:45:54;97259.00;;;8.72;100.00
69848;BME280;57143;55.940;37.496;2023-04-03T02:48:22;97267.94;;;8.72;100.00
69848;BME280;57143;55.940;37.496;2023-04-03T02:50:50;97275.50;;;8.75;100.00
69848;BME280;57143;55.940;37.496;2023-04-03T02:53:17;97272.16;;;8.53;100.00
69848;BME280;57143;55.940;37.496;2023-04-03T02:55:45;97296.78;;;8.62;100.00
69848;BME280;57143;55.940;37.496;2023-04-03T02:58:14;97310.84;;;8.64;100.00
69848;BME280;57143;55.940;37.496;2023-04-03T03:00:42;97322.91;;;8.51;100.00
69848;BME280;57143;55.940;37.496;2023-04-03T03:03:09;97319.66;;;8.49;100.00
69848;BME280;57143;55.940;37.496;2023-04-03T03:05:36;97305.84;;;8.41;100.00
69848;BME280;57143;55.940;37.496;2023-04-03T03:08:03;97308.63;;;8.51;100.00
69848;BME280;57143;55.940;37.496;2023-04-03T03:10:30;97320.16;;;8.41;100.00
69848;BME280;57143;55.940;37.496;2023-04-03T03:12:58;97320.22;;;8.14;100.00
69848;BME280;57143;55.940;37.496;2023-04-03T03:15:26;97304.00;;;8.09;100.00
69848;BME280;57143;55.940;37.496;2023-04-03T03:17:54;97311.34;;;8.14;100.00
69848;BME280;57143;55.940;37.496;2023-04-03T03:20:21;97314.28;;;8.07;100.00
69848;BME280;57143;55.940;37.496;2023-04-03T03:22:48;97304.00;;;8.09;100.00
69848;BME280;57143;55.940;37.496;2023-04-03T03:25:15;97290.31;;;8.16;100.00
69848;BME280;57143;55.940;37.496;2023-04-03T03:27:42;97281.31;;;8.00;100.00
69848;BME280;57143;55.940;37.496;2023-04-03T03:30:10;97274.53;;;7.98;100.00
69848;BME280;57143;55.940;37.496;2023-04-03T03:32:39;97296.59;;;7.90;100.00
69848;BME280;57143;55.940;37.496;2023-04-03T03:35:06;97276.06;;;7.84;100.00
69848;BME280;57143;55.940;37.496;2023-04-03T03:37:34;97272.03;;;7.86;100.00
69848;BME280;57143;55.940;37.496;2023-04-03T03:40:01;97265.84;;;7.91;100.00
69848;BME280;57143;55.940;37.496;2023-04-03T03:42:29;97234.16;;;8.13;100.00
69848;BME280;57143;55.940;37.496;2023-04-03T03:44:56;97233.78;;;8.41;100.00
69848;BME280;57143;55.940;37.496;2023-04-03T03:47:23;97206.94;;;8.81;100.00
69848;BME280;57143;55.940;37.496;2023-04-03T03:49:52;97171.03;;;9.16;100.00
69848;BME280;57143;55.940;37.496;2023-04-03T03:52:19;97180.47;;;9.59;100.00
69848;BME280;57143;55.940;37.496;2023-04-03T03:54:46;97157.91;;;10.13;100.00
69848;BME280;57143;55.940;37.496;2023-04-03T03:57:13;97141.09;;;10.70;100.00
69848;BME280;57143;55.940;37.496;2023-04-03T03:59:41;97142.88;;;11.28;100.00
69848;BME280;57143;55.940;37.496;2023-04-03T04:02:09;97151.81;;;11.57;100.00
69848;BME280;57143;55.940;37.496;2023-04-03T04:04:37;97243.19;;;11.67;100.00
69848;BME280;57143;55.940;37.496;2023-04-03T04:07:05;97291.75;;;12.02;100.00
69848;BME280;57143;55.940;37.496;2023-04-03T04:09:32;97384.50;;;12.14;100.00
69848;BME280;57143;55.940;37.496;2023-04-03T04:12:00;97473.81;;;11.62;100.00
69848;BME280;57143;55.940;37.496;2023-04-03T04:14:27;97546.34;;;11.36;100.00
69848;BME280;57143;55.940;37.496;2023-04-03T04:16:54;97625.53;;;11.03;100.00
69848;BME280;57143;55.940;37.496;2023-04-03T04:19:21;97658.59;;;10.80;100.00
69848;BME280;57143;55.940;37.496;2023-04-03T04:21:48;97720.22;;;10.33;100.00
69848;BME280;57143;55.940;37.496;2023-04-03T04:24:17;97768.97;;;10.38;100.00
69848;BME280;57143;55.940;37.496;2023-04-03T04:26:44;97787.84;;;10.23;100.00
69848;BME280;57143;55.940;37.496;2023-04-03T04:29:11;97800.91;;;9.99;100.00
69848;BME280;57143;55.940;37.496;2023-04-03T04:31:38;97817.00;;;9.79;100.00
69848;BME280;57143;55.940;37.496;2023-04-03T04:34:05;97814.72;;;9.66;100.00
69848;BME280;57143;55.940;37.496;2023-04-03T04:36:33;97809.94;;;9.47;100.00
69848;BME280;57143;55.940;37.496;2023-04-03T04:39:00;97826.88;;;9.37;100.00
69848;BME280;57143;55.940;37.496;2023-04-03T04:41:28;97829.22;;;9.28;100.00
69848;BME280;57143;55.940;37.496;2023-04-03T04:43:55;97827.56;;;9.22;100.00
69848;BME280;57143;55.940;37.496;2023-04-03T04:46:23;97821.53;;;9.15;100.00
69848;BME280;57143;55.940;37.496;2023-04-03T04:48:50;97813.16;;;9.17;100.00
69848;BME280;57143;55.940;37.496;2023-04-03T04:51:17;97827.81;;;8.99;100.00
69848;BME280;57143;55.940;37.496;2023-04-03T04:53:44;97829.66;;;8.94;100.00
69848;BME280;57143;55.940;37.496;2023-04-03T04:56:11;97809.94;;;8.93;100.00
69848;BME280;57143;55.940;37.496;2023-04-03T04:58:40;97813.75;;;8.97;100.00
69848;BME280;57143;55.940;37.496;2023-04-03T05:01:08;97797.16;;;8.89;100.00
69848;BME280;57143;55.940;37.496;2023-04-03T05:03:36;97776.28;;;8.79;100.00
69848;BME280;57143;55.940;37.496;2023-04-03T05:06:03;97789.72;;;9.01;100.00
69848;BME280;57143;55.940;37.496;2023-04-03T05:08:30;97784.28;;;8.96;100.00
69848;BME280;57143;55.940;37.496;2023-04-03T05:10:58;97780.56;;;9.02;100.00
69848;BME280;57143;55.940;37.496;2023-04-03T05:13:25;97783.09;;;9.35;100.00
69848;BME280;57143;55.940;37.496;2023-04-03T05:15:54;97779.38;;;9.46;100.00
69848;BME280;57143;55.940;37.496;2023-04-03T05:18:21;97783.81;;;9.57;100.00
69848;BME280;57143;55.940;37.496;2023-04-03T05:20:48;97742.59;;;9.45;100.00
69848;BME280;57143;55.940;37.496;2023-04-03T05:23:16;97788.63;;;9.82;100.00
69848;BME280;57143;55.940;37.496;2023-04-03T05:25:43;97794.44;;;10.00;100.00
69848;BME280;57143;55.940;37.496;2023-04-03T05:28:12;97813.88;;;10.34;100.00
69848;BME280;57143;55.940;37.496;2023-04-03T05:30:40;97812.69;;;10.62;100.00
69848;BME280;57143;55.940;37.496;2023-04-03T05:33:08;97824.84;;;11.21;100.00
69848;BME280;57143;55.940;37.496;2023-04-03T05:35:36;97839.09;;;11.78;100.00
69848;BME280;57143;55.940;37.496;2023-04-03T05:38:05;97894.50;;;12.47;100.00
69848;BME280;57143;55.940;37.496;2023-04-03T05:40:32;97980.34;;;12.48;100.00
69848;BME280;57143;55.940;37.496;2023-04-03T05:42:59;98036.38;;;13.10;100.00
69848;BME280;57143;55.940;37.496;2023-04-03T05:45:26;98066.81;;;13.32;100.00
69848;BME280;57143;55.940;37.496;2023-04-03T05:47:53;98124.19;;;12.85;100.00
69848;BME280;57143;55.940;37.496;2023-04-03T05:50:22;98139.19;;;13.23;100.00
69848;BME280;57143;55.940;37.496;2023-04-03T05:52:51;98179.16;;;13.07;100.00
69848;BME280;57143;55.940;37.496;2023-04-03T05:55:19;98191.72;;;13.28;100.00
69848;BME280;57143;55.940;37.496;2023-04-03T05:57:46;98204.47;;;13.13;100.00
69848;BME280;57143;55.940;37.496;2023-04-03T06:00:14;98219.47;;;13.35;100.00
69848;BME280;57143;55.940;37.496;2023-04-03T06:02:42;98222.75;;;13.47;100.00
69848;BME280;57143;55.940;37.496;2023-04-03T06:05:10;98254.28;;;13.28;100.00
69848;BME280;57143;55.940;37.496;2023-04-03T06:07:40;98239.03;;;13.17;100.00
69848;BME280;57143;55.940;37.496;2023-04-03T06:10:08;98287.41;;;13.05;100.00
69848;BME280;57143;55.940;37.496;2023-04-03T06:12:35;98301.91;;;12.64;100.00
69848;BME280;57143;55.940;37.496;2023-04-03T06:15:03;98294.28;;;12.61;100.00
69848;BME280;57143;55.940;37.496;2023-04-03T06:17:30;98291.59;;;12.66;100.00
69848;BME280;57143;55.940;37.496;2023-04-03T06:19:57;98293.41;;;12.45;100.00
69848;BME280;57143;55.940;37.496;2023-04-03T06:22:24;98294.72;;;12.38;100.00
69848;BME280;57143;55.940;37.496;2023-04-03T06:24:56;98310.28;;;12.11;100.00
69848;BME280;57143;55.940;37.496;2023-04-03T06:27:24;98308.59;;;12.05;100.00
69848;BME280;57143;55.940;37.496;2023-04-03T06:29:51;98295.53;;;12.38;100.00
69848;BME280;57143;55.940;37.496;2023-04-03T06:32:18;98305.03;;;12.41;100.00
69848;BME280;57143;55.940;37.496;2023-04-03T06:34:45;98319.53;;;12.56;100.00
69848;BME280;57143;55.940;37.496;2023-04-03T06:37:15;98331.19;;;12.52;100.00
69848;BME280;57143;55.940;37.496;2023-04-03T06:39:42;98330.88;;;12.43;100.00
69848;BME280;57143;55.940;37.496;2023-04-03T06:42:10;98356.81;;;12.19;100.00
69848;BME280;57143;55.940;37.496;2023-04-03T06:44:38;98368.66;;;12.08;100.00
69848;BME280;57143;55.940;37.496;2023-04-03T06:47:05;98355.88;;;12.04;100.00
69848;BME280;57143;55.940;37.496;2023-04-03T06:49:34;98369.75;;;12.07;100.00
69848;BME280;57143;55.940;37.496;2023-04-03T06:52:02;98367.59;;;12.09;100.00
69848;BME280;57143;55.940;37.496;2023-04-03T06:54:30;98358.16;;;12.22;100.00
69848;BME280;57143;55.940;37.496;2023-04-03T06:56:57;98352.78;;;12.27;100.00
69848;BME280;57143;55.940;37.496;2023-04-03T06:59:26;98355.94;;;12.14;100.00
69848;BME280;57143;55.940;37.496;2023-04-03T07:01:53;98352.72;;;12.22;100.00
69848;BME280;57143;55.940;37.496;2023-04-03T07:04:20;98351.41;;;12.24;100.00
69848;BME280;57143;55.940;37.496;2023-04-03T07:06:48;98360.66;;;12.23;100.00
69848;BME280;57143;55.940;37.496;2023-04-03T07:09:15;98354.19;;;12.34;100.00
69848;BME280;57143;55.940;37.496;2023-04-03T07:11:42;98346.94;;;12.50;100.00
69848;BME280;57143;55.940;37.496;2023-04-03T07:14:09;98347.56;;;12.62;100.00
69848;BME280;57143;55.940;37.496;2023-04-03T07:16:38;98353.28;;;12.60;100.00
69848;BME280;57143;55.940;37.496;2023-04-03T07:19:05;98333.91;;;12.52;100.00
69848;BME280;57143;55.940;37.496;2023-04-03T07:21:34;98349.88;;;12.85;100.00
69848;BME280;57143;55.940;37.496;2023-04-03T07:24:01;98363.75;;;12.89;100.00
69848;BME280;57143;55.940;37.496;2023-04-03T07:26:28;98358.44;;;13.09;100.00
69848;BME280;57143;55.940;37.496;2023-04-03T07:28:56;98358.47;;;13.24;100.00
69848;BME280;57143;55.940;37.496;2023-04-03T07:31:23;98385.09;;;13.12;100.00
69848;BME280;57143;55.940;37.496;2023-04-03T07:33:51;98397.31;;;13.04;100.00
69848;BME280;57143;55.940;37.496;2023-04-03T07:36:20;98393.66;;;13.45;100.00
69848;BME280;57143;55.940;37.496;2023-04-03T07:38:48;98414.25;;;13.21;100.00
69848;BME280;57143;55.940;37.496;2023-04-03T07:41:17;98395.31;;;12.95;100.00
69848;BME280;57143;55.940;37.496;2023-04-03T07:43:45;98436.47;;;13.03;100.00
69848;BME280;57143;55.940;37.496;2023-04-03T07:46:15;98441.28;;;12.96;100.00
69848;BME280;57143;55.940;37.496;2023-04-03T07:48:43;98450.44;;;12.75;100.00
69848;BME280;57143;55.940;37.496;2023-04-03T07:51:12;98455.06;;;12.43;100.00
69848;BME280;57143;55.940;37.496;2023-04-03T07:53:40;98448.22;;;12.35;100.00
69848;BME280;57143;55.940;37.496;2023-04-03T07:56:07;98442.88;;;12.45;100.00
69848;BME280;57143;55.940;37.496;2023-04-03T07:58:35;98446.38;;;12.46;100.00
69848;BME280;57143;55.940;37.496;2023-04-03T08:01:03;98430.28;;;12.71;100.00
69848;BME280;57143;55.940;37.496;2023-04-03T08:03:30;98411.31;;;12.86;100.00
69848;BME280;57143;55.940;37.496;2023-04-03T08:06:02;98407.47;;;13.29;100.00
69848;BME280;57143;55.940;37.496;2023-04-03T08:08:31;98393.59;;;13.25;100.00
69848;BME280;57143;55.940;37.496;2023-04-03T08:10:59;98422.03;;;13.59;100.00
69848;BME280;57143;55.940;37.496;2023-04-03T08:13:28;98431.34;;;13.88;100.00
69848;BME280;57143;55.940;37.496;2023-04-03T08:15:56;98449.88;;;13.97;100.00
69848;BME280;57143;55.940;37.496;2023-04-03T08:18:24;98457.75;;;13.88;100.00
69848;BME280;57143;55.940;37.496;2023-04-03T08:20:52;98461.88;;;13.90;100.00
69848;BME280;57143;55.940;37.496;2023-04-03T08:23:19;98497.69;;;13.52;100.00
69848;BME280;57143;55.940;37.496;2023-04-03T08:25:48;98505.78;;;13.37;100.00
69848;BME280;57143;55.940;37.496;2023-04-03T08:28:15;98475.34;;;13.50;100.00
69848;BME280;57143;55.940;37.496;2023-04-03T08:30:42;98515.03;;;13.00;100.00
69848;BME280;57143;55.940;37.496;2023-04-03T08:33:10;98484.50;;;13.29;100.00
69848;BME280;57143;55.940;37.496;2023-04-03T08:35:40;98483.47;;;12.99;100.00
69848;BME280;57143;55.940;37.496;2023-04-03T08:38:08;98485.31;;;13.25;100.00
69848;BME280;57143;55.940;37.496;2023-04-03T08:40:35;98490.84;;;13.45;100.00
69848;BME280;57143;55.940;37.496;2023-04-03T08:43:20;98504.66;;;13.33;100.00
69848;BME280;57143;55.940;37.496;2023-04-03T08:45:55;98488.81;;;13.77;100.00
69848;BME280;57143;55.940;37.496;2023-04-03T08:48:26;98523.00;;;13.06;100.00
69848;BME280;57143;55.940;37.496;2023-04-03T08:50:57;98503.88;;;13.01;100.00
69848;BME280;57143;55.940;37.496;2023-04-03T08:53:28;98461.28;;;13.17;100.00
69848;BME280;57143;55.940;37.496;2023-04-03T08:55:58;98491.13;;;13.48;100.00
69848;BME280;57143;55.940;37.496;2023-04-03T08:58:33;98514.00;;;13.52;100.00
69848;BME280;57143;55.940;37.496;2023-04-03T09:01:05;98521.66;;;13.60;100.00
69848;BME280;57143;55.940;37.496;2023-04-03T09:03:36;98530.94;;;13.59;100.00
69848;BME280;57143;55.940;37.496;2023-04-03T09:06:07;98529.59;;;13.72;100.00
69848;BME280;57143;55.940;37.496;2023-04-03T09:08:40;98544.22;;;13.46;100.00
69848;BME280;57143;55.940;37.496;2023-04-03T09:11:16;98538.28;;;13.59;100.00
69848;BME280;57143;55.940;37.496;2023-04-03T09:13:53;98544.84;;;13.63;100.00
69848;BME280;57143;55.940;37.496;2023-04-03T09:16:30;98556.47;;;13.12;100.00
69848;BME280;57143;55.940;37.496;2023-04-03T09:19:08;98521.81;;;13.34;100.00
69848;BME280;57143;55.940;37.496;2023-04-03T09:21:40;98549.97;;;13.54;100.00
69848;BME280;57143;55.940;37.496;2023-04-03T09:24:10;98535.13;;;13.82;100.00
69848;BME280;57143;55.940;37.496;2023-04-03T09:26:42;98510.03;;;13.80;100.00
69848;BME280;57143;55.940;37.496;2023-04-03T09:29:15;98537.34;;;14.05;100.00
69848;BME280;57143;55.940;37.496;2023-04-03T09:31:46;98561.59;;;14.07;100.00
69848;BME280;57143;55.940;37.496;2023-04-03T09:34:19;98568.41;;;13.94;100.00
69848;BME280;57143;55.940;37.496;2023-04-03T09:36:52;98559.41;;;13.93;100.00
69848;BME280;57143;55.940;37.496;2023-04-03T09:39:21;98572.78;;;14.10;100.00
69848;BME280;57143;55.940;37.496;2023-04-03T09:41:57;98578.91;;;14.32;100.00
69848;BME280;57143;55.940;37.496;2023-04-03T09:44:29;98564.75;;;14.55;100.00
69848;BME280;57143;55.940;37.496;2023-04-03T09:46:57;98581.03;;;14.25;100.00
69848;BME280;57143;55.940;37.496;2023-04-03T09:49:24;98587.72;;;13.93;100.00
69848;BME280;57143;55.940;37.496;2023-04-03T09:51:51;98580.59;;;13.81;100.00
69848;BME280;57143;55.940;37.496;2023-04-03T09:54:40;98582.31;;;14.03;100.00
69848;BME280;57143;55.940;37.496;2023-04-03T09:57:12;98591.16;;;13.73;100.00
69848;BME280;57143;55.940;37.496;2023-04-03T09:59:45;98564.22;;;13.71;100.00
69848;BME280;57143;55.940;37.496;2023-04-03T10:02:30;98572.28;;;14.13;100.00
69848;BME280;57143;55.940;37.496;2023-04-03T10:04:59;98581.72;;;13.90;100.00
69848;BME280;57143;55.940;37.496;2023-04-03T10:07:28;98571.66;;;13.96;100.00
69848;BME280;57143;55.940;37.496;2023-04-03T10:09:57;98580.81;;;13.70;100.00
69848;BME280;57143;55.940;37.496;2023-04-03T10:12:24;98566.72;;;13.88;100.00
69848;BME280;57143;55.940;37.496;2023-04-03T10:14:57;98546.94;;;14.13;100.00
69848;BME280;57143;55.940;37.496;2023-04-03T10:17:38;98572.56;;;14.17;100.00
69848;BME280;57143;55.940;37.496;2023-04-03T10:20:27;98594.84;;;13.52;100.00
69848;BME280;57143;55.940;37.496;2023-04-03T10:23:05;98590.59;;;13.24;100.00
69848;BME280;57143;55.940;37.496;2023-04-03T10:25:42;98560.84;;;13.49;100.00
69848;BME280;57143;55.940;37.496;2023-04-03T10:28:16;98563.13;;;13.26;100.00
69848;BME280;57143;55.940;37.496;2023-04-03T10:30:51;98504.06;;;12.90;100.00
69848;BME280;57143;55.940;37.496;2023-04-03T10:33:34;98536.56;;;13.48;100.00
69848;BME280;57143;55.940;37.496;2023-04-03T10:36:11;98519.81;;;13.71;100.00
69848;BME280;57143;55.940;37.496;2023-04-03T10:38:48;98541.00;;;13.59;100.00
69848;BME280;57143;55.940;37.496;2023-04-03T10:41:27;98547.06;;;13.24;100.00
69848;BME280;57143;55.940;37.496;2023-04-03T10:44:05;98534.81;;;13.22;100.00
69848;BME280;57143;55.940;37.496;2023-04-03T10:46:38;98533.94;;;13.11;100.00
69848;BME280;57143;55.940;37.496;2023-04-03T10:49:21;98515.16;;;13.10;100.00
69848;BME280;57143;55.940;37.496;2023-04-03T10:51:56;98510.47;;;13.05;100.00
69848;BME280;57143;55.940;37.496;2023-04-03T10:54:35;98493.75;;;12.92;100.00
69848;BME280;57143;55.940;37.496;2023-04-03T10:57:06;98494.19;;;13.10;100.00
69848;BME280;57143;55.940;37.496;2023-04-03T10:59:37;98468.38;;;13.13;100.00
69848;BME280;57143;55.940;37.496;2023-04-03T11:02:14;98502.22;;;12.95;100.00
69848;BME280;57143;55.940;37.496;2023-04-03T11:04:48;98506.19;;;12.82;100.00
69848;BME280;57143;55.940;37.496;2023-04-03T11:07:20;98500.63;;;12.62;100.00
69848;BME280;57143;55.940;37.496;2023-04-03T11:09:50;98476.69;;;13.01;100.00
69848;BME280;57143;55.940;37.496;2023-04-03T11:12:23;98460.28;;;13.28;100.00
69848;BME280;57143;55.940;37.496;2023-04-03T11:14:52;98474.81;;;13.53;100.00
69848;BME280;57143;55.940;37.496;2023-04-03T11:17:31;98473.25;;;13.77;100.00
69848;BME280;57143;55.940;37.496;2023-04-03T11:20:05;98474.97;;;14.04;100.00
69848;BME280;57143;55.940;37.496;2023-04-03T11:22:36;98486.75;;;14.39;100.00
69848;BME280;57143;55.940;37.496;2023-04-03T11:25:14;98489.25;;;14.51;100.00
69848;BME280;57143;55.940;37.496;2023-04-03T11:27:49;98509.13;;;14.41;100.00
69848;BME280;57143;55.940;37.496;2023-04-03T11:30:20;98509.38;;;14.40;100.00
69848;BME280;57143;55.940;37.496;2023-04-03T11:32:59;98529.56;;;14.29;100.00
69848;BME280;57143;55.940;37.496;2023-04-03T11:35:29;98549.19;;;14.36;100.00
69848;BME280;57143;55.940;37.496;2023-04-03T11:37:58;98577.53;;;14.35;100.00
69848;BME280;57143;55.940;37.496;2023-04-03T11:40:29;98582.69;;;14.26;100.00
69848;BME280;57143;55.940;37.496;2023-04-03T11:43:06;98592.44;;;14.22;100.00
69848;BME280;57143;55.940;37.496;2023-04-03T11:45:45;98622.06;;;13.93;100.00
69848;BME280;57143;55.940;37.496;2023-04-03T11:48:51;98584.78;;;13.52;100.00
69848;BME280;57143;55.940;37.496;2023-04-03T11:51:41;98611.09;;;13.78;100.00
69848;BME280;57143;55.940;37.496;2023-04-03T11:54:46;98598.94;;;13.49;100.00
69848;BME280;57143;55.940;37.496;2023-04-03T11:57:44;98586.25;;;13.23;100.00
69848;BME280;57143;55.940;37.496;2023-04-03T12:00:50;98560.47;;;13.41;100.00
69848;BME280;57143;55.940;37.496;2023-04-03T12:04:04;98542.50;;;13.35;100.00
69848;BME280;57143;55.940;37.496;2023-04-03T12:06:50;98531.97;;;13.53;100.00
69848;BME280;57143;55.940;37.496;2023-04-03T12:09:27;98525.50;;;13.59;100.00
69848;BME280;57143;55.940;37.496;2023-04-03T12:11:55;98567.22;;;13.75;100.00
69848;BME280;57143;55.940;37.496;2023-04-03T12:14:23;98615.72;;;13.83;100.00
69848;BME280;57143;55.940;37.496;2023-04-03T12:16:53;98671.00;;;13.78;100.00
69848;BME280;57143;55.940;37.496;2023-04-03T12:19:42;98697.41;;;13.78;100.00
69848;BME280;57143;55.940;37.496;2023-04-03T12:22:17;98733.13;;;13.81;100.00
69848;BME280;57143;55.940;37.496;2023-04-03T12:24:47;98751.03;;;13.72;100.00
69848;BME280;57143;55.940;37.496;2023-04-03T12:27:29;98772.88;;;13.82;100.00
69848;BME280;57143;55.940;37.496;2023-04-03T12:30:14;98846.16;;;13.84;100.00
69848;BME280;57143;55.940;37.496;2023-04-03T12:32:51;98863.28;;;13.79;100.00
69848;BME280;57143;55.940;37.496;2023-04-03T12:35:28;98866.09;;;13.58;100.00
69848;BME280;57143;55.940;37.496;2023-04-03T12:41:23;98921.41;;;13.90;100.00
69848;BME280;57143;55.940;37.496;2023-04-03T12:44:08;98952.59;;;13.77;100.00
69848;BME280;57143;55.940;37.496;2023-04-03T12:46:44;99001.75;;;13.87;100.00
69848;BME280;57143;55.940;37.496;2023-04-03T12:49:24;99015.13;;;13.89;100.00
69848;BME280;57143;55.940;37.496;2023-04-03T12:51:55;99025.88;;;13.79;100.00
69848;BME280;57143;55.940;37.496;2023-04-03T12:54:25;99041.44;;;13.78;100.00
69848;BME280;57143;55.940;37.496;2023-04-03T12:57:08;98996.69;;;13.31;100.00
69848;BME280;57143;55.940;37.496;2023-04-03T12:59:36;99045.28;;;13.61;100.00
69848;BME280;57143;55.940;37.496;2023-04-03T13:02:15;99034.13;;;13.62;100.00
69848;BME280;57143;55.940;37.496;2023-04-03T13:04:44;99022.41;;;13.62;100.00
69848;BME280;57143;55.940;37.496;2023-04-03T13:07:21;99000.38;;;13.42;100.00